sensor_id;sensor_type;location;lat;lon;timestamp;temperature;humidity
44117;DHT22;29781;49.480;8.512;2024-02-26T00:00:39;10.20;99.90
44117;DHT22;29781;49.480;8.512;2024-02-26T00:03:05;10.10;99.90
44117;DHT22;29781;49.480;8.512;2024-02-26T00:05:30;9.80;99.90
44117;DHT22;29781;49.480;8.512;2024-02-26T00:07:56;9.80;99.90
44117;DHT22;29781;49.480;8.512;2024-02-26T00:10:22;9.90;99.90
44117;DHT22;29781;49.480;8.512;2024-02-26T00:12:47;9.80;99.90
44117;DHT22;29781;49.480;8.512;2024-02-26T00:15:13;9.60;99.90
44117;DHT22;29781;49.480;8.512;2024-02-26T00:17:39;9.40;99.90
44117;DHT22;29781;49.480;8.512;2024-02-26T00:20:06;9.50;99.90
44117;DHT22;29781;49.480;8.512;2024-02-26T00:22:34;9.50;99.90
44117;DHT22;29781;49.480;8.512;2024-02-26T00:25:00;9.50;99.90
44117;DHT22;29781;49.480;8.512;2024-02-26T00:27:25;9.50;99.90
44117;DHT22;29781;49.480;8.512;2024-02-26T00:29:51;9.50;99.90
44117;DHT22;29781;49.480;8.512;2024-02-26T00:32:16;9.50;99.90
44117;DHT22;29781;49.480;8.512;2024-02-26T00:34:42;9.60;99.90
44117;DHT22;29781;49.480;8.512;2024-02-26T00:37:07;9.90;99.90
44117;DHT22;29781;49.480;8.512;2024-02-26T00:39:33;10.00;99.90
44117;DHT22;29781;49.480;8.512;2024-02-26T00:41:58;10.10;99.90
44117;DHT22;29781;49.480;8.512;2024-02-26T00:44:24;10.20;99.90
44117;DHT22;29781;49.480;8.512;2024-02-26T00:46:49;10.20;99.90
44117;DHT22;29781;49.480;8.512;2024-02-26T00:49:15;10.10;99.90
44117;DHT22;29781;49.480;8.512;2024-02-26T00:51:40;10.10;99.90
44117;DHT22;29781;49.480;8.512;2024-02-26T00:54:06;10.70;99.90
44117;DHT22;29781;49.480;8.512;2024-02-26T00:56:31;10.30;99.90
44117;DHT22;29781;49.480;8.512;2024-02-26T00:58:57;10.20;99.90
44117;DHT22;29781;49.480;8.512;2024-02-26T01:01:22;10.20;99.90
44117;DHT22;29781;49.480;8.512;2024-02-26T01:03:48;10.20;99.90
44117;DHT22;29781;49.480;8.512;2024-02-26T01:06:13;10.20;99.90
44117;DHT22;29781;49.480;8.512;2024-02-26T01:08:39;10.20;99.90
44117;DHT22;29781;49.480;8.512;2024-02-26T01:11:04;10.20;99.90
44117;DHT22;29781;49.480;8.512;2024-02-26T01:13:30;10.20;99.90
44117;DHT22;29781;49.480;8.512;2024-02-26T01:15:55;10.10;99.90
44117;DHT22;29781;49.480;8.512;2024-02-26T01:18:21;10.10;99.90
44117;DHT22;29781;49.480;8.512;2024-02-26T01:20:47;10.00;99.90
44117;DHT22;29781;49.480;8.512;2024-02-26T01:23:13;10.00;99.90
44117;DHT22;29781;49.480;8.512;2024-02-26T01:25:38;10.00;99.90
44117;DHT22;29781;49.480;8.512;2024-02-26T01:28:05;9.90;99.90
44117;DHT22;29781;49.480;8.512;2024-02-26T01:30:31;10.00;99.90
44117;DHT22;29781;49.480;8.512;2024-02-26T01:32:56;10.00;99.90
44117;DHT22;29781;49.480;8.512;2024-02-26T01:35:22;10.00;99.90
44117;DHT22;29781;49.480;8.512;2024-02-26T01:37:48;10.00;99.90
44117;DHT22;29781;49.480;8.512;2024-02-26T01:40:13;9.90;99.90
44117;DHT22;29781;49.480;8.512;2024-02-26T01:42:43;9.90;99.90
44117;DHT22;29781;49.480;8.512;2024-02-26T01:45:13;9.90;99.90
44117;DHT22;29781;49.480;8.512;2024-02-26T01:47:41;9.90;99.90
44117;DHT22;29781;49.480;8.512;2024-02-26T01:50:07;9.90;99.90
44117;DHT22;29781;49.480;8.512;2024-02-26T01:52:33;9.80;99.90
44117;DHT22;29781;49.480;8.512;2024-02-26T01:54:59;9.80;99.90
44117;DHT22;29781;49.480;8.512;2024-02-26T01:57:27;9.80;99.90
44117;DHT22;29781;49.480;8.512;2024-02-26T01:59:53;9.70;99.90
44117;DHT22;29781;49.480;8.512;2024-02-26T02:02:19;9.70;99.90
44117;DHT22;29781;49.480;8.512;2024-02-26T02:04:44;9.70;99.90
44117;DHT22;29781;49.480;8.512;2024-02-26T02:07:10;9.70;99.90
44117;DHT22;29781;49.480;8.512;2024-02-26T02:09:36;9.60;99.90
44117;DHT22;29781;49.480;8.512;2024-02-26T02:12:02;9.60;99.90
44117;DHT22;29781;49.480;8.512;2024-02-26T02:14:27;9.50;99.90
44117;DHT22;29781;49.480;8.512;2024-02-26T02:16:53;9.40;99.90
44117;DHT22;29781;49.480;8.512;2024-02-26T02:19:19;9.30;99.90
44117;DHT22;29781;49.480;8.512;2024-02-26T02:21:44;9.30;99.90
44117;DHT22;29781;49.480;8.512;2024-02-26T02:24:10;9.20;99.90
44117;DHT22;29781;49.480;8.512;2024-02-26T02:26:35;9.10;99.90
44117;DHT22;29781;49.480;8.512;2024-02-26T02:29:01;9.20;99.90
44117;DHT22;29781;49.480;8.512;2024-02-26T02:31:27;9.20;99.90
44117;DHT22;29781;49.480;8.512;2024-02-26T02:33:53;9.30;99.90
44117;DHT22;29781;49.480;8.512;2024-02-26T02:36:18;9.20;99.90
44117;DHT22;29781;49.480;8.512;2024-02-26T02:38:51;9.30;99.90
44117;DHT22;29781;49.480;8.512;2024-02-26T02:41:16;9.20;99.90
44117;DHT22;29781;49.480;8.512;2024-02-26T02:43:42;9.10;99.90
44117;DHT22;29781;49.480;8.512;2024-02-26T02:46:07;9.00;99.90
44117;DHT22;29781;49.480;8.512;2024-02-26T02:48:33;9.00;99.90
44117;DHT22;29781;49.480;8.512;2024-02-26T02:50:58;8.90;99.90
44117;DHT22;29781;49.480;8.512;2024-02-26T02:53:24;8.80;99.90
44117;DHT22;29781;49.480;8.512;2024-02-26T02:55:49;8.80;99.90
44117;DHT22;29781;49.480;8.512;2024-02-26T02:58:15;8.90;99.90
44117;DHT22;29781;49.480;8.512;2024-02-26T03:00:40;9.00;99.90
44117;DHT22;29781;49.480;8.512;2024-02-26T03:03:06;9.00;99.90
44117;DHT22;29781;49.480;8.512;2024-02-26T03:05:31;9.00;99.90
44117;DHT22;29781;49.480;8.512;2024-02-26T03:07:57;9.00;99.90
44117;DHT22;29781;49.480;8.512;2024-02-26T03:10:23;9.00;99.90
44117;DHT22;29781;49.480;8.512;2024-02-26T03:12:49;9.00;99.90
44117;DHT22;29781;49.480;8.512;2024-02-26T03:15:14;9.10;99.90
44117;DHT22;29781;49.480;8.512;2024-02-26T03:17:40;9.10;99.90
44117;DHT22;29781;49.480;8.512;2024-02-26T03:20:06;9.10;99.90
44117;DHT22;29781;49.480;8.512;2024-02-26T03:22:33;9.00;99.90
44117;DHT22;29781;49.480;8.512;2024-02-26T03:24:59;9.00;99.90
44117;DHT22;29781;49.480;8.512;2024-02-26T03:27:24;8.90;99.90
44117;DHT22;29781;49.480;8.512;2024-02-26T03:29:50;8.90;99.90
44117;DHT22;29781;49.480;8.512;2024-02-26T03:32:16;8.90;99.90
44117;DHT22;29781;49.480;8.512;2024-02-26T03:34:41;8.90;99.90
44117;DHT22;29781;49.480;8.512;2024-02-26T03:37:07;8.90;99.90
44117;DHT22;29781;49.480;8.512;2024-02-26T03:39:35;8.60;99.90
44117;DHT22;29781;49.480;8.512;2024-02-26T03:42:01;8.60;99.90
44117;DHT22;29781;49.480;8.512;2024-02-26T03:44:27;8.60;99.90
44117;DHT22;29781;49.480;8.512;2024-02-26T03:46:52;8.60;99.90
44117;DHT22;29781;49.480;8.512;2024-02-26T03:49:18;8.60;99.90
44117;DHT22;29781;49.480;8.512;2024-02-26T03:51:44;8.60;99.90
44117;DHT22;29781;49.480;8.512;2024-02-26T03:54:10;8.50;99.90
44117;DHT22;29781;49.480;8.512;2024-02-26T03:56:35;8.50;99.90
44117;DHT22;29781;49.480;8.512;2024-02-26T03:59:01;8.50;99.90
44117;DHT22;29781;49.480;8.512;2024-02-26T04:01:28;8.40;99.90
44117;DHT22;29781;49.480;8.512;2024-02-26T04:03:54;8.40;99.90
44117;DHT22;29781;49.480;8.512;2024-02-26T04:06:20;8.20;99.90
44117;DHT22;29781;49.480;8.512;2024-02-26T04:08:47;8.30;99.90
44117;DHT22;29781;49.480;8.512;2024-02-26T04:11:12;8.20;99.90
44117;DHT22;29781;49.480;8.512;2024-02-26T04:13:38;8.10;99.90
44117;DHT22;29781;49.480;8.512;2024-02-26T04:16:05;8.00;99.90
44117;DHT22;29781;49.480;8.512;2024-02-26T04:18:31;8.20;99.90
44117;DHT22;29781;49.480;8.512;2024-02-26T04:20:56;8.00;99.90
44117;DHT22;29781;49.480;8.512;2024-02-26T04:23:22;8.10;99.90
44117;DHT22;29781;49.480;8.512;2024-02-26T04:25:48;8.00;99.90
44117;DHT22;29781;49.480;8.512;2024-02-26T04:28:14;7.90;99.90
44117;DHT22;29781;49.480;8.512;2024-02-26T04:30:40;7.80;99.90
44117;DHT22;29781;49.480;8.512;2024-02-26T04:33:05;7.70;99.90
44117;DHT22;29781;49.480;8.512;2024-02-26T04:35:31;7.70;99.90
44117;DHT22;29781;49.480;8.512;2024-02-26T04:37:57;7.60;99.90
44117;DHT22;29781;49.480;8.512;2024-02-26T04:40:23;7.80;99.90
44117;DHT22;29781;49.480;8.512;2024-02-26T04:42:49;7.80;99.90
44117;DHT22;29781;49.480;8.512;2024-02-26T04:45:15;8.00;99.90
44117;DHT22;29781;49.480;8.512;2024-02-26T04:47:40;8.10;99.90
44117;DHT22;29781;49.480;8.512;2024-02-26T04:50:06;7.90;99.90
44117;DHT22;29781;49.480;8.512;2024-02-26T04:52:32;8.10;99.90
44117;DHT22;29781;49.480;8.512;2024-02-26T04:54:57;8.20;99.90
44117;DHT22;29781;49.480;8.512;2024-02-26T04:57:26;8.10;99.90
44117;DHT22;29781;49.480;8.512;2024-02-26T04:59:52;8.10;99.90
44117;DHT22;29781;49.480;8.512;2024-02-26T05:02:17;8.00;99.90
44117;DHT22;29781;49.480;8.512;2024-02-26T05:04:43;8.20;99.90
44117;DHT22;29781;49.480;8.512;2024-02-26T05:07:08;8.30;99.90
44117;DHT22;29781;49.480;8.512;2024-02-26T05:09:34;8.30;99.90
44117;DHT22;29781;49.480;8.512;2024-02-26T05:12:00;8.30;99.90
44117;DHT22;29781;49.480;8.512;2024-02-26T05:14:26;8.40;99.90
44117;DHT22;29781;49.480;8.512;2024-02-26T05:16:51;8.40;99.90
44117;DHT22;29781;49.480;8.512;2024-02-26T05:19:17;8.40;99.90
44117;DHT22;29781;49.480;8.512;2024-02-26T05:21:42;8.50;99.90
44117;DHT22;29781;49.480;8.512;2024-02-26T05:24:09;8.50;99.90
44117;DHT22;29781;49.480;8.512;2024-02-26T05:26:35;8.40;99.90
44117;DHT22;29781;49.480;8.512;2024-02-26T05:29:00;8.40;99.90
44117;DHT22;29781;49.480;8.512;2024-02-26T05:31:26;8.60;99.90
44117;DHT22;29781;49.480;8.512;2024-02-26T05:33:52;8.60;99.90
44117;DHT22;29781;49.480;8.512;2024-02-26T05:36:20;8.70;99.90
44117;DHT22;29781;49.480;8.512;2024-02-26T05:38:46;8.80;99.90
44117;DHT22;29781;49.480;8.512;2024-02-26T05:41:12;8.70;99.90
44117;DHT22;29781;49.480;8.512;2024-02-26T05:43:37;8.70;99.90
44117;DHT22;29781;49.480;8.512;2024-02-26T05:46:03;8.70;99.90
44117;DHT22;29781;49.480;8.512;2024-02-26T05:48:28;8.80;99.90
44117;DHT22;29781;49.480;8.512;2024-02-26T05:50:54;8.90;99.90
44117;DHT22;29781;49.480;8.512;2024-02-26T05:53:19;8.80;99.90
44117;DHT22;29781;49.480;8.512;2024-02-26T05:55:45;8.80;99.90
44117;DHT22;29781;49.480;8.512;2024-02-26T05:58:10;8.70;99.90
44117;DHT22;29781;49.480;8.512;2024-02-26T06:00:36;8.70;99.90
44117;DHT22;29781;49.480;8.512;2024-02-26T06:03:01;8.60;99.90
44117;DHT22;29781;49.480;8.512;2024-02-26T06:05:27;8.60;99.90
44117;DHT22;29781;49.480;8.512;2024-02-26T06:07:53;8.70;99.90
44117;DHT22;29781;49.480;8.512;2024-02-26T06:10:20;8.60;99.90
44117;DHT22;29781;49.480;8.512;2024-02-26T06:12:47;8.70;99.90
44117;DHT22;29781;49.480;8.512;2024-02-26T06:15:12;8.70;99.90
44117;DHT22;29781;49.480;8.512;2024-02-26T06:17:38;8.70;99.90
44117;DHT22;29781;49.480;8.512;2024-02-26T06:20:03;8.70;99.90
44117;DHT22;29781;49.480;8.512;2024-02-26T06:22:31;8.60;99.90
44117;DHT22;29781;49.480;8.512;2024-02-26T06:24:57;8.60;99.90
44117;DHT22;29781;49.480;8.512;2024-02-26T06:27:23;8.70;99.90
44117;DHT22;29781;49.480;8.512;2024-02-26T06:29:49;8.80;99.90
44117;DHT22;29781;49.480;8.512;2024-02-26T06:32:14;8.90;99.90
44117;DHT22;29781;49.480;8.512;2024-02-26T06:34:40;8.80;99.90
44117;DHT22;29781;49.480;8.512;2024-02-26T06:37:07;8.80;99.90
44117;DHT22;29781;49.480;8.512;2024-02-26T06:39:33;8.70;99.90
44117;DHT22;29781;49.480;8.512;2024-02-26T06:41:59;8.70;99.90
44117;DHT22;29781;49.480;8.512;2024-02-26T06:44:28;8.60;99.90
44117;DHT22;29781;49.480;8.512;2024-02-26T06:46:59;8.60;99.90
44117;DHT22;29781;49.480;8.512;2024-02-26T06:49:25;8.50;99.90
44117;DHT22;29781;49.480;8.512;2024-02-26T06:51:51;8.50;99.90
44117;DHT22;29781;49.480;8.512;2024-02-26T06:54:17;8.40;99.90
44117;DHT22;29781;49.480;8.512;2024-02-26T06:56:42;8.40;99.90
44117;DHT22;29781;49.480;8.512;2024-02-26T06:59:08;8.40;99.90
44117;DHT22;29781;49.480;8.512;2024-02-26T07:01:33;8.40;99.90
44117;DHT22;29781;49.480;8.512;2024-02-26T07:03:59;8.40;99.90
44117;DHT22;29781;49.480;8.512;2024-02-26T07:06:25;8.40;99.90
44117;DHT22;29781;49.480;8.512;2024-02-26T07:08:50;8.40;99.90
44117;DHT22;29781;49.480;8.512;2024-02-26T07:11:16;8.40;99.90
44117;DHT22;29781;49.480;8.512;2024-02-26T07:13:41;8.40;99.90
44117;DHT22;29781;49.480;8.512;2024-02-26T07:16:09;8.40;99.90
44117;DHT22;29781;49.480;8.512;2024-02-26T07:18:35;8.50;99.90
44117;DHT22;29781;49.480;8.512;2024-02-26T07:21:03;8.50;99.90
44117;DHT22;29781;49.480;8.512;2024-02-26T07:23:29;8.60;99.90
44117;DHT22;29781;49.480;8.512;2024-02-26T07:25:55;8.50;99.90
44117;DHT22;29781;49.480;8.512;2024-02-26T07:28:20;8.50;99.90
44117;DHT22;29781;49.480;8.512;2024-02-26T07:30:46;8.50;99.90
44117;DHT22;29781;49.480;8.512;2024-02-26T07:33:11;8.50;99.90
44117;DHT22;29781;49.480;8.512;2024-02-26T07:35:37;8.60;99.90
44117;DHT22;29781;49.480;8.512;2024-02-26T07:38:04;8.60;99.90
44117;DHT22;29781;49.480;8.512;2024-02-26T07:40:30;8.60;99.90
44117;DHT22;29781;49.480;8.512;2024-02-26T07:42:55;8.60;99.90
44117;DHT22;29781;49.480;8.512;2024-02-26T07:45:21;8.60;99.90
44117;DHT22;29781;49.480;8.512;2024-02-26T07:47:47;8.60;99.90
44117;DHT22;29781;49.480;8.512;2024-02-26T07:50:13;8.60;99.90
44117;DHT22;29781;49.480;8.512;2024-02-26T07:52:39;8.50;99.90
44117;DHT22;29781;49.480;8.512;2024-02-26T07:55:05;8.50;99.90
44117;DHT22;29781;49.480;8.512;2024-02-26T07:57:32;8.60;99.90
44117;DHT22;29781;49.480;8.512;2024-02-26T07:59:59;8.50;99.90
44117;DHT22;29781;49.480;8.512;2024-02-26T08:02:24;8.50;99.90
44117;DHT22;29781;49.480;8.512;2024-02-26T08:04:50;8.50;99.90
44117;DHT22;29781;49.480;8.512;2024-02-26T08:07:15;8.70;99.90
44117;DHT22;29781;49.480;8.512;2024-02-26T08:09:41;8.60;99.90
44117;DHT22;29781;49.480;8.512;2024-02-26T08:12:07;8.60;99.90
44117;DHT22;29781;49.480;8.512;2024-02-26T08:14:32;8.60;99.90
44117;DHT22;29781;49.480;8.512;2024-02-26T08:16:58;8.70;99.90
44117;DHT22;29781;49.480;8.512;2024-02-26T08:19:24;8.80;99.90
44117;DHT22;29781;49.480;8.512;2024-02-26T08:21:50;8.80;99.90
44117;DHT22;29781;49.480;8.512;2024-02-26T08:24:15;8.90;99.90
44117;DHT22;29781;49.480;8.512;2024-02-26T08:26:41;9.00;99.90
44117;DHT22;29781;49.480;8.512;2024-02-26T08:29:06;9.10;99.90
44117;DHT22;29781;49.480;8.512;2024-02-26T08:31:32;9.20;99.90
44117;DHT22;29781;49.480;8.512;2024-02-26T08:33:57;9.30;99.90
44117;DHT22;29781;49.480;8.512;2024-02-26T08:36:24;9.40;99.90
44117;DHT22;29781;49.480;8.512;2024-02-26T08:38:50;9.50;99.90
44117;DHT22;29781;49.480;8.512;2024-02-26T08:41:15;9.60;99.90
44117;DHT22;29781;49.480;8.512;2024-02-26T08:43:41;9.50;99.90
44117;DHT22;29781;49.480;8.512;2024-02-26T08:46:09;9.60;99.90
44117;DHT22;29781;49.480;8.512;2024-02-26T08:48:35;9.60;99.90
44117;DHT22;29781;49.480;8.512;2024-02-26T08:51:05;9.60;99.90
44117;DHT22;29781;49.480;8.512;2024-02-26T08:53:31;9.40;99.90
44117;DHT22;29781;49.480;8.512;2024-02-26T08:55:56;9.20;99.90
44117;DHT22;29781;49.480;8.512;2024-02-26T08:58:22;9.40;99.90
44117;DHT22;29781;49.480;8.512;2024-02-26T09:00:47;9.50;99.90
44117;DHT22;29781;49.480;8.512;2024-02-26T09:03:13;9.60;99.90
44117;DHT22;29781;49.480;8.512;2024-02-26T09:05:38;9.60;99.90
44117;DHT22;29781;49.480;8.512;2024-02-26T09:08:04;9.70;99.90
44117;DHT22;29781;49.480;8.512;2024-02-26T09:10:30;9.70;99.90
44117;DHT22;29781;49.480;8.512;2024-02-26T09:12:55;9.70;99.90
44117;DHT22;29781;49.480;8.512;2024-02-26T09:15:21;9.70;99.90
44117;DHT22;29781;49.480;8.512;2024-02-26T09:17:46;9.80;99.90
44117;DHT22;29781;49.480;8.512;2024-02-26T09:20:15;9.80;99.90
44117;DHT22;29781;49.480;8.512;2024-02-26T09:22:48;9.70;99.90
44117;DHT22;29781;49.480;8.512;2024-02-26T09:25:14;9.80;99.90
44117;DHT22;29781;49.480;8.512;2024-02-26T09:27:41;9.80;99.90
44117;DHT22;29781;49.480;8.512;2024-02-26T09:30:09;9.80;99.90
44117;DHT22;29781;49.480;8.512;2024-02-26T09:32:35;9.80;99.90
44117;DHT22;29781;49.480;8.512;2024-02-26T09:35:01;9.70;99.90
44117;DHT22;29781;49.480;8.512;2024-02-26T09:37:27;9.80;99.90
44117;DHT22;29781;49.480;8.512;2024-02-26T09:39:52;9.80;99.90
44117;DHT22;29781;49.480;8.512;2024-02-26T09:42:19;9.90;99.90
44117;DHT22;29781;49.480;8.512;2024-02-26T09:44:45;10.10;99.90
44117;DHT22;29781;49.480;8.512;2024-02-26T09:47:11;10.10;99.90
44117;DHT22;29781;49.480;8.512;2024-02-26T09:49:42;10.20;99.90
44117;DHT22;29781;49.480;8.512;2024-02-26T09:52:08;10.20;99.90
44117;DHT22;29781;49.480;8.512;2024-02-26T09:54:35;10.30;99.90
44117;DHT22;29781;49.480;8.512;2024-02-26T09:57:02;10.40;99.90
44117;DHT22;29781;49.480;8.512;2024-02-26T09:59:29;10.40;99.90
44117;DHT22;29781;49.480;8.512;2024-02-26T10:01:58;10.40;99.90
44117;DHT22;29781;49.480;8.512;2024-02-26T10:04:24;10.50;99.90
44117;DHT22;29781;49.480;8.512;2024-02-26T10:06:51;10.60;99.90
44117;DHT22;29781;49.480;8.512;2024-02-26T10:09:17;10.70;99.90
44117;DHT22;29781;49.480;8.512;2024-02-26T10:11:43;10.60;99.90
44117;DHT22;29781;49.480;8.512;2024-02-26T10:14:09;10.70;99.90
44117;DHT22;29781;49.480;8.512;2024-02-26T10:16:35;10.80;99.90
44117;DHT22;29781;49.480;8.512;2024-02-26T10:19:01;10.80;99.90
44117;DHT22;29781;49.480;8.512;2024-02-26T10:21:26;11.00;99.90
44117;DHT22;29781;49.480;8.512;2024-02-26T10:23:53;10.70;99.90
44117;DHT22;29781;49.480;8.512;2024-02-26T10:26:19;10.70;99.90
44117;DHT22;29781;49.480;8.512;2024-02-26T10:28:45;10.70;99.90
44117;DHT22;29781;49.480;8.512;2024-02-26T10:31:13;10.60;99.90
44117;DHT22;29781;49.480;8.512;2024-02-26T10:33:39;10.90;99.90
44117;DHT22;29781;49.480;8.512;2024-02-26T10:36:05;11.10;99.90
44117;DHT22;29781;49.480;8.512;2024-02-26T10:38:35;11.30;99.90
44117;DHT22;29781;49.480;8.512;2024-02-26T10:41:06;11.50;99.90
44117;DHT22;29781;49.480;8.512;2024-02-26T10:43:31;11.40;99.90
44117;DHT22;29781;49.480;8.512;2024-02-26T10:45:57;11.10;99.90
44117;DHT22;29781;49.480;8.512;2024-02-26T10:48:23;11.30;99.90
44117;DHT22;29781;49.480;8.512;2024-02-26T10:50:49;12.50;99.90
44117;DHT22;29781;49.480;8.512;2024-02-26T10:53:18;13.40;99.90
44117;DHT22;29781;49.480;8.512;2024-02-26T10:55:57;14.00;99.90
44117;DHT22;29781;49.480;8.512;2024-02-26T10:58:24;14.40;99.90
44117;DHT22;29781;49.480;8.512;2024-02-26T11:00:51;14.00;99.90
44117;DHT22;29781;49.480;8.512;2024-02-26T11:03:18;13.60;99.90
44117;DHT22;29781;49.480;8.512;2024-02-26T11:05:47;14.10;99.90
44117;DHT22;29781;49.480;8.512;2024-02-26T11:08:13;14.70;99.90
44117;DHT22;29781;49.480;8.512;2024-02-26T11:10:40;15.10;99.90
44117;DHT22;29781;49.480;8.512;2024-02-26T11:13:06;15.10;99.90
44117;DHT22;29781;49.480;8.512;2024-02-26T11:15:35;15.10;99.90
44117;DHT22;29781;49.480;8.512;2024-02-26T11:18:01;15.00;99.90
44117;DHT22;29781;49.480;8.512;2024-02-26T11:20:30;14.80;99.90
44117;DHT22;29781;49.480;8.512;2024-02-26T11:22:57;14.30;99.90
44117;DHT22;29781;49.480;8.512;2024-02-26T11:25:23;13.80;99.90
44117;DHT22;29781;49.480;8.512;2024-02-26T11:27:58;13.60;99.90
44117;DHT22;29781;49.480;8.512;2024-02-26T11:30:31;13.50;99.90
44117;DHT22;29781;49.480;8.512;2024-02-26T11:32:56;13.30;99.90
44117;DHT22;29781;49.480;8.512;2024-02-26T11:35:23;13.30;99.90
44117;DHT22;29781;49.480;8.512;2024-02-26T11:37:55;13.40;99.90
44117;DHT22;29781;49.480;8.512;2024-02-26T11:40:25;13.50;99.90
44117;DHT22;29781;49.480;8.512;2024-02-26T11:42:51;13.60;99.90
44117;DHT22;29781;49.480;8.512;2024-02-26T11:48:03;13.90;99.90
44117;DHT22;29781;49.480;8.512;2024-02-26T11:50:36;14.00;99.90
44117;DHT22;29781;49.480;8.512;2024-02-26T11:55:47;14.00;99.90
44117;DHT22;29781;49.480;8.512;2024-02-26T11:58:13;13.70;99.90
44117;DHT22;29781;49.480;8.512;2024-02-26T12:00:42;12.80;99.90
44117;DHT22;29781;49.480;8.512;2024-02-26T12:03:08;12.50;99.90
44117;DHT22;29781;49.480;8.512;2024-02-26T12:05:36;12.10;99.90
44117;DHT22;29781;49.480;8.512;2024-02-26T12:08:05;11.80;99.90
44117;DHT22;29781;49.480;8.512;2024-02-26T12:10:36;11.80;99.90
44117;DHT22;29781;49.480;8.512;2024-02-26T12:13:09;11.70;99.90
44117;DHT22;29781;49.480;8.512;2024-02-26T12:15:39;11.70;99.90
44117;DHT22;29781;49.480;8.512;2024-02-26T12:18:06;11.80;99.90
44117;DHT22;29781;49.480;8.512;2024-02-26T12:20:36;11.90;99.90
44117;DHT22;29781;49.480;8.512;2024-02-26T12:23:03;12.00;99.90
44117;DHT22;29781;49.480;8.512;2024-02-26T12:25:32;12.00;99.90
44117;DHT22;29781;49.480;8.512;2024-02-26T12:27:59;12.00;99.90
44117;DHT22;29781;49.480;8.512;2024-02-26T12:30:25;12.40;99.90
44117;DHT22;29781;49.480;8.512;2024-02-26T12:32:52;13.40;99.90
44117;DHT22;29781;49.480;8.512;2024-02-26T12:35:22;14.60;99.90
44117;DHT22;29781;49.480;8.512;2024-02-26T12:37:48;14.80;99.90
44117;DHT22;29781;49.480;8.512;2024-02-26T12:40:14;15.10;99.90
44117;DHT22;29781;49.480;8.512;2024-02-26T12:42:39;14.60;99.90
44117;DHT22;29781;49.480;8.512;2024-02-26T12:45:07;14.60;99.90
44117;DHT22;29781;49.480;8.512;2024-02-26T12:47:40;14.90;99.90
44117;DHT22;29781;49.480;8.512;2024-02-26T12:50:07;14.00;99.90
44117;DHT22;29781;49.480;8.512;2024-02-26T12:52:34;13.40;99.90
44117;DHT22;29781;49.480;8.512;2024-02-26T12:55:01;12.90;99.90
44117;DHT22;29781;49.480;8.512;2024-02-26T12:57:33;12.50;99.90
44117;DHT22;29781;49.480;8.512;2024-02-26T12:59:59;12.30;99.90
44117;DHT22;29781;49.480;8.512;2024-02-26T13:02:26;12.60;99.90
44117;DHT22;29781;49.480;8.512;2024-02-26T13:04:52;13.20;99.90
44117;DHT22;29781;49.480;8.512;2024-02-26T13:07:19;14.00;99.90
44117;DHT22;29781;49.480;8.512;2024-02-26T13:09:45;14.40;99.90
44117;DHT22;29781;49.480;8.512;2024-02-26T13:12:12;14.10;99.90
44117;DHT22;29781;49.480;8.512;2024-02-26T13:14:38;14.00;99.90
44117;DHT22;29781;49.480;8.512;2024-02-26T13:17:03;13.50;99.90
44117;DHT22;29781;49.480;8.512;2024-02-26T13:19:29;13.00;99.90
44117;DHT22;29781;49.480;8.512;2024-02-26T13:21:55;12.90;99.90
44117;DHT22;29781;49.480;8.512;2024-02-26T13:24:21;12.80;99.90
44117;DHT22;29781;49.480;8.512;2024-02-26T13:26:56;12.60;99.90
44117;DHT22;29781;49.480;8.512;2024-02-26T13:29:22;12.60;99.90
44117;DHT22;29781;49.480;8.512;2024-02-26T13:31:48;12.60;99.90
44117;DHT22;29781;49.480;8.512;2024-02-26T13:34:24;12.70;99.90
44117;DHT22;29781;49.480;8.512;2024-02-26T13:36:51;12.70;99.90
44117;DHT22;29781;49.480;8.512;2024-02-26T13:39:27;12.90;99.90
44117;DHT22;29781;49.480;8.512;2024-02-26T13:41:53;12.90;99.90
44117;DHT22;29781;49.480;8.512;2024-02-26T13:44:20;13.00;99.90
44117;DHT22;29781;49.480;8.512;2024-02-26T13:46:46;13.10;99.90
44117;DHT22;29781;49.480;8.512;2024-02-26T13:49:12;13.50;99.90
44117;DHT22;29781;49.480;8.512;2024-02-26T13:51:41;13.80;99.90
44117;DHT22;29781;49.480;8.512;2024-02-26T13:54:07;13.70;99.90
44117;DHT22;29781;49.480;8.512;2024-02-26T13:56:34;13.80;99.90
44117;DHT22;29781;49.480;8.512;2024-02-26T13:59:00;13.60;99.90
44117;DHT22;29781;49.480;8.512;2024-02-26T14:01:25;13.70;99.90
44117;DHT22;29781;49.480;8.512;2024-02-26T14:03:51;13.30;99.90
44117;DHT22;29781;49.480;8.512;2024-02-26T14:06:20;13.10;99.90
44117;DHT22;29781;49.480;8.512;2024-02-26T14:08:45;13.10;99.90
44117;DHT22;29781;49.480;8.512;2024-02-26T14:11:11;13.00;99.90
44117;DHT22;29781;49.480;8.512;2024-02-26T14:13:36;13.20;99.90
44117;DHT22;29781;49.480;8.512;2024-02-26T14:16:02;13.30;99.90
44117;DHT22;29781;49.480;8.512;2024-02-26T14:18:28;13.30;99.90
44117;DHT22;29781;49.480;8.512;2024-02-26T14:20:53;13.50;99.90
44117;DHT22;29781;49.480;8.512;2024-02-26T14:23:19;13.90;99.90
44117;DHT22;29781;49.480;8.512;2024-02-26T14:25:44;13.80;99.90
44117;DHT22;29781;49.480;8.512;2024-02-26T14:28:11;14.10;99.90
44117;DHT22;29781;49.480;8.512;2024-02-26T14:30:36;14.10;99.90
44117;DHT22;29781;49.480;8.512;2024-02-26T14:33:02;13.60;99.90
44117;DHT22;29781;49.480;8.512;2024-02-26T14:35:28;13.30;99.90
44117;DHT22;29781;49.480;8.512;2024-02-26T14:37:53;13.10;99.90
44117;DHT22;29781;49.480;8.512;2024-02-26T14:40:20;13.20;99.90
44117;DHT22;29781;49.480;8.512;2024-02-26T14:42:45;13.10;99.90
44117;DHT22;29781;49.480;8.512;2024-02-26T14:45:12;12.90;99.90
44117;DHT22;29781;49.480;8.512;2024-02-26T14:47:37;12.80;99.90
44117;DHT22;29781;49.480;8.512;2024-02-26T14:50:04;13.00;99.90
44117;DHT22;29781;49.480;8.512;2024-02-26T14:52:30;13.20;99.90
44117;DHT22;29781;49.480;8.512;2024-02-26T14:54:56;13.10;99.90
44117;DHT22;29781;49.480;8.512;2024-02-26T14:57:24;13.20;99.90
44117;DHT22;29781;49.480;8.512;2024-02-26T14:59:49;13.20;99.90
44117;DHT22;29781;49.480;8.512;2024-02-26T15:02:16;13.20;99.90
44117;DHT22;29781;49.480;8.512;2024-02-26T15:04:42;13.30;99.90
44117;DHT22;29781;49.480;8.512;2024-02-26T15:07:08;13.20;99.90
44117;DHT22;29781;49.480;8.512;2024-02-26T15:09:34;13.10;99.90
44117;DHT22;29781;49.480;8.512;2024-02-26T15:12:00;13.00;99.90
44117;DHT22;29781;49.480;8.512;2024-02-26T15:14:25;13.00;99.90
44117;DHT22;29781;49.480;8.512;2024-02-26T15:16:52;13.00;99.90
44117;DHT22;29781;49.480;8.512;2024-02-26T15:19:17;13.00;99.90
44117;DHT22;29781;49.480;8.512;2024-02-26T15:21:47;13.00;99.90
44117;DHT22;29781;49.480;8.512;2024-02-26T15:24:12;13.00;99.90
44117;DHT22;29781;49.480;8.512;2024-02-26T15:26:38;13.00;99.90
44117;DHT22;29781;49.480;8.512;2024-02-26T15:29:07;13.00;99.90
44117;DHT22;29781;49.480;8.512;2024-02-26T15:31:36;13.00;99.90
44117;DHT22;29781;49.480;8.512;2024-02-26T15:34:02;13.00;99.90
44117;DHT22;29781;49.480;8.512;2024-02-26T15:36:28;13.00;99.90
44117;DHT22;29781;49.480;8.512;2024-02-26T15:38:54;13.00;99.90